createdAt,value
2022-09-12T00:00:32.699Z,4.00
2022-09-12T00:03:30.875Z,2.22
2022-09-12T00:06:33.547Z,3.28
2022-09-12T00:09:16.482Z,2.28
2022-09-12T00:12:04.606Z,2.53
2022-09-12T00:14:52.896Z,2.45
2022-09-12T00:17:27.553Z,2.10
2022-09-12T00:20:18.634Z,2.20
2022-09-12T00:22:59.535Z,2.47
2022-09-12T00:25:37.934Z,1.92
2022-09-12T00:28:35.669Z,2.20
2022-09-12T00:31:31.915Z,2.15
2022-09-12T00:34:20.777Z,1.98
2022-09-12T00:36:55.634Z,4.18
2022-09-12T00:39:28.510Z,2.40
2022-09-12T00:42:31.007Z,6.68
2022-09-12T00:45:41.902Z,2.35
2022-09-12T00:48:38.258Z,2.13
2022-09-12T00:51:17.997Z,2.45
2022-09-12T00:56:56.384Z,4.18
2022-09-12T01:02:49.604Z,2.05
2022-09-12T01:05:17.603Z,2.60
2022-09-12T01:07:49.374Z,3.10
2022-09-12T01:10:30.971Z,2.37
2022-09-12T01:13:10.710Z,2.55
2022-09-12T01:15:57.208Z,4.68
2022-09-12T01:19:04.508Z,5.38
2022-09-12T01:25:18.596Z,2.70
2022-09-12T01:28:19.194Z,3.17
2022-09-12T01:31:34.178Z,2.13
2022-09-12T01:37:37.892Z,12.10
2022-09-12T01:40:51.373Z,2.58
2022-09-12T01:43:36.416Z,2.75
2022-09-12T01:46:58.178Z,7.53
2022-09-12T01:49:54.477Z,2.10
2022-09-12T01:52:41.776Z,4.50
2022-09-12T01:55:31.149Z,1.70
2022-09-12T01:58:13.469Z,1.90
2022-09-12T02:01:09.362Z,1.80
2022-09-12T02:03:45.125Z,4.07
2022-09-12T02:06:20.625Z,4.25
2022-09-12T02:08:56.173Z,6.05
2022-09-12T02:11:23.568Z,3.13
2022-09-12T02:14:03.743Z,2.20
2022-09-12T02:16:39.834Z,4.35
2022-09-12T02:19:16.077Z,1.63
2022-09-12T02:21:52.536Z,3.00
2022-09-12T02:24:23.348Z,1.73
2022-09-12T02:26:58.437Z,1.40
2022-09-12T02:29:26.289Z,1.67
2022-09-12T02:31:59.635Z,4.57
2022-09-12T02:34:39.921Z,2.60
2022-09-12T02:37:46.306Z,1.92
2022-09-12T02:40:16.091Z,1.92
2022-09-12T02:42:43.771Z,1.50
2022-09-12T02:45:15.192Z,3.40
2022-09-12T02:48:05.989Z,2.33
2022-09-12T02:50:33.398Z,1.00
2022-09-12T02:53:06.990Z,1.85
2022-09-12T02:55:43.330Z,2.15
2022-09-12T02:58:17.920Z,1.40
2022-09-12T03:01:24.612Z,2.03
2022-09-12T03:04:34.060Z,1.63
2022-09-12T03:07:27.895Z,2.45
2022-09-12T03:10:02.440Z,1.50
2022-09-12T03:12:44.836Z,1.55
2022-09-12T03:15:28.544Z,1.55
2022-09-12T03:18:06.782Z,1.20
2022-09-12T03:21:10.256Z,1.50
2022-09-12T03:23:41.734Z,2.00
2022-09-12T03:26:35.191Z,2.15
2022-09-12T03:29:06.532Z,1.55
2022-09-12T03:31:42.618Z,1.55
2022-09-12T03:34:16.217Z,2.17
2022-09-12T03:36:51.909Z,2.55
2022-09-12T03:39:26.441Z,6.03
2022-09-12T03:41:55.446Z,4.68
2022-09-12T03:44:24.780Z,1.80
2022-09-12T03:46:52.942Z,4.07
2022-09-12T03:49:25.359Z,1.73
2022-09-12T03:51:55.749Z,1.55
2022-09-12T03:54:28.796Z,3.10
2022-09-12T03:56:59.441Z,5.20
2022-09-12T03:59:27.745Z,1.88
2022-09-12T04:02:01.395Z,2.38
2022-09-12T04:04:30.756Z,1.55
2022-09-12T04:09:48.140Z,1.65
2022-09-12T04:12:26.518Z,1.83
2022-09-12T04:14:56.531Z,2.42
2022-09-12T04:17:31.143Z,2.95
2022-09-12T04:20:20.554Z,2.55
2022-09-12T04:22:56.748Z,3.53
2022-09-12T04:25:32.691Z,1.70
2022-09-12T04:28:16.604Z,1.80
2022-09-12T04:30:52.822Z,2.00
2022-09-12T04:33:20.165Z,1.83
2022-09-12T04:35:48.061Z,4.95
2022-09-12T04:38:21.803Z,3.65
2022-09-12T04:40:50.295Z,3.53
2022-09-12T04:43:19.267Z,1.63
2022-09-12T04:45:46.489Z,1.77
2022-09-12T04:48:16.143Z,1.92
2022-09-12T04:50:44.109Z,14.98
2022-09-12T04:53:11.480Z,2.03
2022-09-12T04:55:38.650Z,3.75
2022-09-12T04:58:07.885Z,2.53
2022-09-12T05:00:38.685Z,3.42
2022-09-12T05:03:14.228Z,3.72
2022-09-12T05:05:42.139Z,2.65
2022-09-12T05:08:13.816Z,7.80
2022-09-12T05:11:21.573Z,5.63
2022-09-12T05:14:06.338Z,2.22
2022-09-12T05:17:10.870Z,4.35
2022-09-12T05:20:17.609Z,2.50
2022-09-12T05:23:06.111Z,3.70
2022-09-12T05:25:59.777Z,2.85
2022-09-12T05:28:49.318Z,5.05
2022-09-12T05:31:42.735Z,14.55
2022-09-12T05:34:11.610Z,2.92
2022-09-12T05:36:59.051Z,4.22
2022-09-12T05:39:34.637Z,3.00
2022-09-12T05:42:17.323Z,3.20
2022-09-12T05:45:02.394Z,3.33
2022-09-12T05:47:44.017Z,2.65
2022-09-12T05:50:25.621Z,3.08
2022-09-12T05:53:24.754Z,3.47
2022-09-12T05:56:14.848Z,3.38
2022-09-12T05:58:48.137Z,3.35
2022-09-12T06:01:21.351Z,7.97
2022-09-12T06:03:55.222Z,3.35
2022-09-12T06:06:27.811Z,3.13
2022-09-12T06:09:08.326Z,6.45
2022-09-12T06:11:46.791Z,3.40
2022-09-12T06:14:23.248Z,5.55
2022-09-12T06:17:04.623Z,3.35
2022-09-12T06:19:34.912Z,3.30
2022-09-12T06:22:35.035Z,3.05
2022-09-12T06:25:12.742Z,3.00
2022-09-12T06:27:49.920Z,3.08
2022-09-12T06:30:27.734Z,2.58
2022-09-12T06:32:57.856Z,5.82
2022-09-12T06:35:26.794Z,4.10
2022-09-12T06:38:01.923Z,3.08
2022-09-12T06:40:44.195Z,5.15
2022-09-12T06:43:19.964Z,5.38
2022-09-12T06:45:55.257Z,3.00
2022-09-12T06:48:30.444Z,4.30
2022-09-12T06:51:32.106Z,3.25
2022-09-12T06:54:11.736Z,3.80
2022-09-12T06:56:53.765Z,3.83
2022-09-12T06:59:27.755Z,3.33
2022-09-12T07:02:02.989Z,2.58
2022-09-12T07:04:58.403Z,7.90
2022-09-12T07:07:31.540Z,5.03
2022-09-12T07:10:02.689Z,3.70
2022-09-12T07:12:54.925Z,5.60
2022-09-12T07:15:40.390Z,7.47
2022-09-12T07:18:16.360Z,3.80
2022-09-12T07:20:58.080Z,4.43
2022-09-12T07:23:30.197Z,5.20
2022-09-12T07:26:07.317Z,3.53
2022-09-12T07:28:42.417Z,5.93
2022-09-12T07:33:59.965Z,3.20
2022-09-12T07:36:43.189Z,3.30
2022-09-12T07:39:52.355Z,2.58
2022-09-12T07:42:32.125Z,4.03
2022-09-12T07:45:06.191Z,3.78
2022-09-12T07:47:42.327Z,3.05
2022-09-12T07:50:19.330Z,3.97
2022-09-12T07:53:04.169Z,3.47
2022-09-12T07:55:37.671Z,3.35
2022-09-12T07:58:34.766Z,3.50
2022-09-12T08:01:29.410Z,3.65
2022-09-12T08:04:05.377Z,3.72
2022-09-12T08:06:44.694Z,3.55
2022-09-12T08:09:32.152Z,5.00
2022-09-12T08:12:07.723Z,3.10
2022-09-12T08:15:45.166Z,3.50
2022-09-12T08:18:30.446Z,10.90
2022-09-12T08:21:55.991Z,2.83
2022-09-12T08:24:32.310Z,7.40
2022-09-12T08:27:15.968Z,2.67
2022-09-12T08:30:00.088Z,2.87
2022-09-12T08:32:32.005Z,2.90
2022-09-12T08:35:09.947Z,3.83
2022-09-12T08:37:41.982Z,2.95
2022-09-12T08:40:21.082Z,2.85
2022-09-12T08:43:33.863Z,2.97
2022-09-12T08:46:15.234Z,4.40
2022-09-12T08:48:46.341Z,3.45
2022-09-12T08:51:47.273Z,11.57
2022-09-12T08:54:36.372Z,4.53
2022-09-12T08:57:12.772Z,3.13
2022-09-12T08:59:50.928Z,3.45
2022-09-12T09:06:05.374Z,2.40
2022-09-12T09:12:27.176Z,3.45
2022-09-12T09:16:04.503Z,2.85
2022-09-12T09:18:39.361Z,2.50
2022-09-12T09:22:04.110Z,3.15
2022-09-12T09:24:50.503Z,2.60
2022-09-12T09:27:41.592Z,3.50
2022-09-12T09:30:43.381Z,2.45
2022-09-12T09:33:21.568Z,2.80
2022-09-12T09:36:35.846Z,2.95
2022-09-12T09:42:37.920Z,2.58
2022-09-12T09:45:20.748Z,3.58
2022-09-12T09:48:18.290Z,2.20
2022-09-12T09:51:20.742Z,3.25
2022-09-12T09:54:23.961Z,2.78
2022-09-12T09:56:56.954Z,2.63
2022-09-12T09:59:35.615Z,3.33
2022-09-12T10:02:26.739Z,2.80
2022-09-12T10:05:01.417Z,2.78
2022-09-12T10:07:29.447Z,3.03
2022-09-12T10:10:22.894Z,4.13
2022-09-12T10:13:08.707Z,2.97
2022-09-12T10:15:38.801Z,2.63
2022-09-12T10:18:11.059Z,2.80
2022-09-12T10:20:47.573Z,2.63
2022-09-12T10:23:37.781Z,3.85
2022-09-12T10:26:12.510Z,2.92
2022-09-12T10:28:55.218Z,2.60
2022-09-12T10:31:29.554Z,2.92
2022-09-12T10:34:00.296Z,3.10
2022-09-12T10:36:41.014Z,2.58
2022-09-12T10:39:18.698Z,2.00
2022-09-12T10:41:47.207Z,2.97
2022-09-12T10:44:26.457Z,3.40
2022-09-12T10:46:57.970Z,2.90
2022-09-12T10:49:40.407Z,3.15
2022-09-12T10:52:28.563Z,3.10
2022-09-12T10:54:57.854Z,2.85
2022-09-12T10:57:31.905Z,4.20
2022-09-12T10:59:59.627Z,2.03
2022-09-12T11:02:47.799Z,2.60
2022-09-12T11:05:56.565Z,2.92
2022-09-12T11:08:40.491Z,3.05
2022-09-12T11:11:50.519Z,2.20
2022-09-12T11:15:11.460Z,5.63
2022-09-12T11:18:02.064Z,2.80
2022-09-12T11:20:32.386Z,3.28
2022-09-12T11:23:41.984Z,2.78
2022-09-12T11:26:54.532Z,2.38
2022-09-12T11:29:45.826Z,2.38
2022-09-12T11:32:56.518Z,2.70
2022-09-12T11:35:32.687Z,2.97
2022-09-12T11:38:31.665Z,3.13
2022-09-12T11:41:32.322Z,2.70
2022-09-12T11:44:40.047Z,4.35
2022-09-12T11:47:14.055Z,2.70
2022-09-12T11:49:47.707Z,3.63
2022-09-12T11:52:29.451Z,2.90
2022-09-12T11:55:20.037Z,4.30
2022-09-12T11:58:01.947Z,2.80
2022-09-12T12:01:00.157Z,2.63
2022-09-12T12:03:31.394Z,2.80
2022-09-12T12:06:28.977Z,3.40
2022-09-12T12:09:00.540Z,2.50
2022-09-12T12:11:34.672Z,2.70
2022-09-12T12:16:43.673Z,3.15
2022-09-12T12:19:15.908Z,2.40
2022-09-12T12:21:49.609Z,2.50
2022-09-12T12:24:26.241Z,2.63
2022-09-12T12:26:58.961Z,3.15
2022-09-12T12:29:44.391Z,2.25
2022-09-12T12:32:16.656Z,2.03
2022-09-12T12:34:49.220Z,2.35
2022-09-12T12:37:18.930Z,2.75
2022-09-12T12:39:50.967Z,4.60
2022-09-12T12:42:50.103Z,4.47
2022-09-12T12:45:20.876Z,3.20
2022-09-12T12:48:09.957Z,4.72
2022-09-12T12:51:35.977Z,2.42
2022-09-12T12:54:34.364Z,3.97
2022-09-12T12:57:16.472Z,7.05
2022-09-12T12:59:49.235Z,4.97
2022-09-12T13:02:28.312Z,2.90
2022-09-12T13:04:58.474Z,3.60
2022-09-12T13:07:32.974Z,2.80
2022-09-12T13:12:47.163Z,2.22
2022-09-12T13:18:05.395Z,2.50
2022-09-12T13:20:38.645Z,6.70
2022-09-12T13:23:29.825Z,2.88
2022-09-12T13:26:00.004Z,2.33
2022-09-12T13:28:30.148Z,10.48
2022-09-12T13:31:04.759Z,2.00
2022-09-12T13:34:01.282Z,2.00
2022-09-12T13:36:43.277Z,2.13
2022-09-12T13:39:29.375Z,2.03
2022-09-12T13:42:36.415Z,2.90
2022-09-12T13:45:27.054Z,2.10
2022-09-12T13:48:02.151Z,2.70
2022-09-12T13:51:04.066Z,2.13
2022-09-12T13:53:54.108Z,3.42
2022-09-12T13:56:22.919Z,2.42
2022-09-12T13:58:54.930Z,2.60
2022-09-12T14:01:36.746Z,5.20
2022-09-12T14:04:49.462Z,3.53
2022-09-12T14:08:16.976Z,3.13
2022-09-12T14:10:50.551Z,2.38
2022-09-12T14:13:26.337Z,2.03
2022-09-12T14:15:58.378Z,1.98
2022-09-12T14:18:29.841Z,2.20
2022-09-12T14:21:09.578Z,2.25
2022-09-12T14:23:42.732Z,2.28
2022-09-12T14:26:13.741Z,4.10
2022-09-12T14:28:44.636Z,2.33
2022-09-12T14:31:35.773Z,3.55
2022-09-12T14:34:17.292Z,3.63
2022-09-12T14:36:52.440Z,4.50
2022-09-12T14:39:34.277Z,2.28
2022-09-12T14:42:18.408Z,2.85
2022-09-12T14:45:15.688Z,4.55
2022-09-12T14:47:50.426Z,2.17
2022-09-12T14:50:22.481Z,2.72
2022-09-12T14:53:25.986Z,3.35
2022-09-12T14:55:59.535Z,2.00
2022-09-12T14:58:28.490Z,2.40
2022-09-12T15:01:09.751Z,5.22
2022-09-12T15:03:53.428Z,3.70
2022-09-12T15:06:31.746Z,4.43
2022-09-12T15:09:08.646Z,2.85
2022-09-12T15:11:36.129Z,1.98
2022-09-12T15:14:14.080Z,2.67
2022-09-12T15:16:42.281Z,3.17
2022-09-12T15:19:09.810Z,3.10
2022-09-12T15:21:37.058Z,2.22
2022-09-12T15:24:05.010Z,2.58
2022-09-12T15:26:32.223Z,4.70
2022-09-12T15:28:59.434Z,3.22
2022-09-12T15:31:29.605Z,2.97
2022-09-12T15:33:59.534Z,4.35
2022-09-12T15:36:28.975Z,3.55
2022-09-12T15:38:57.303Z,4.40
2022-09-12T15:41:37.075Z,3.70
2022-09-12T15:44:07.923Z,3.70
2022-09-12T15:46:35.438Z,2.50
2022-09-12T15:49:03.050Z,3.25
2022-09-12T15:51:30.608Z,3.60
2022-09-12T15:54:04.673Z,3.10
2022-09-12T15:59:07.440Z,3.13
2022-09-12T16:01:36.656Z,5.63
2022-09-12T16:04:28.536Z,2.88
2022-09-12T16:06:57.021Z,3.30
2022-09-12T16:09:25.568Z,2.90
2022-09-12T16:11:54.768Z,4.20
2022-09-12T16:14:23.592Z,6.65
2022-09-12T16:16:56.142Z,2.90
2022-09-12T16:19:23.675Z,4.03
2022-09-12T16:21:51.487Z,3.70
2022-09-12T16:24:20.345Z,2.42
2022-09-12T16:26:48.099Z,2.92
2022-09-12T16:29:18.518Z,3.15
2022-09-12T16:31:46.031Z,3.92
2022-09-12T16:34:13.879Z,3.35
2022-09-12T16:36:41.105Z,5.28
2022-09-12T16:39:08.397Z,2.97
2022-09-12T16:41:38.309Z,12.52
2022-09-12T16:44:10.284Z,4.55
2022-09-12T16:46:39.637Z,3.45
2022-09-12T16:49:09.758Z,8.05
2022-09-12T16:51:37.063Z,6.45
2022-09-12T16:54:05.551Z,4.25
2022-09-12T16:56:34.877Z,4.00
2022-09-12T16:59:02.183Z,3.92
2022-09-12T17:01:35.006Z,4.97
2022-09-12T17:04:23.620Z,4.93
2022-09-12T17:06:51.443Z,3.33
2022-09-12T17:09:18.753Z,3.13
2022-09-12T17:11:47.886Z,5.53
2022-09-12T17:14:15.340Z,3.00
2022-09-12T17:16:50.748Z,3.60
2022-09-12T17:19:23.101Z,3.53
2022-09-12T17:21:50.321Z,2.92
2022-09-12T17:24:19.177Z,2.88
2022-09-12T17:26:47.041Z,2.88
2022-09-12T17:29:15.145Z,4.85
2022-09-12T17:31:44.013Z,3.78
2022-09-12T17:34:14.646Z,3.45
2022-09-12T17:36:45.718Z,4.00
2022-09-12T17:39:13.846Z,4.03
2022-09-12T17:41:42.920Z,5.88
2022-09-12T17:44:15.233Z,3.80
2022-09-12T17:46:43.476Z,5.28
2022-09-12T17:49:16.561Z,2.67
2022-09-12T17:51:44.381Z,4.20
2022-09-12T17:54:15.813Z,4.38
2022-09-12T17:56:45.555Z,5.20
2022-09-12T17:59:21.687Z,3.35
2022-09-12T18:02:07.775Z,4.35
2022-09-12T18:04:35.737Z,3.63
2022-09-12T18:07:06.072Z,3.88
2022-09-12T18:09:33.748Z,3.42
2022-09-12T18:12:01.645Z,2.70
2022-09-12T18:14:29.622Z,3.88
2022-09-12T18:16:57.366Z,2.75
2022-09-12T18:19:25.137Z,2.85
2022-09-12T18:21:52.545Z,5.50
2022-09-12T18:24:20.910Z,3.33
2022-09-12T18:26:48.470Z,2.88
2022-09-12T18:29:17.029Z,2.53
2022-09-12T18:31:45.134Z,2.75
2022-09-12T18:34:13.950Z,5.15
2022-09-12T18:36:42.865Z,3.67
2022-09-12T18:39:11.254Z,3.92
2022-09-12T18:41:39.218Z,3.90
2022-09-12T18:44:07.384Z,5.63
2022-09-12T18:46:35.349Z,10.38
2022-09-12T18:49:03.865Z,11.25
2022-09-12T18:51:36.060Z,6.55
2022-09-12T18:54:11.957Z,5.97
2022-09-12T18:56:41.055Z,7.75
2022-09-12T18:59:12.877Z,8.27
2022-09-12T19:01:41.670Z,6.78
2022-09-12T19:04:12.121Z,5.05
2022-09-12T19:06:42.685Z,5.60
2022-09-12T19:09:12.609Z,6.88
2022-09-12T19:12:18.212Z,7.07
2022-09-12T19:15:27.834Z,8.05
2022-09-12T19:18:24.439Z,6.68
2022-09-12T19:21:54.674Z,6.50
2022-09-12T19:24:36.007Z,7.65
2022-09-12T19:27:05.765Z,6.97
2022-09-12T19:29:35.901Z,5.97
2022-09-12T19:32:12.700Z,6.90
2022-09-12T19:34:40.351Z,6.97
2022-09-12T19:37:17.203Z,5.68
2022-09-12T19:39:50.158Z,13.13
2022-09-12T19:42:17.579Z,14.32
2022-09-12T19:44:46.016Z,6.47
2022-09-12T19:47:13.520Z,7.63
2022-09-12T19:49:40.785Z,9.35
2022-09-12T19:52:08.443Z,15.07
2022-09-12T19:54:36.078Z,11.60
2022-09-12T19:57:03.601Z,9.43
2022-09-12T19:59:30.897Z,9.15
2022-09-12T20:01:58.677Z,12.57
2022-09-12T20:04:27.630Z,9.98
2022-09-12T20:06:57.641Z,11.30
2022-09-12T20:09:25.209Z,11.05
2022-09-12T20:11:53.284Z,9.70
2022-09-12T20:14:23.702Z,8.75
2022-09-12T20:16:51.439Z,8.70
2022-09-12T20:19:18.754Z,9.50
2022-09-12T20:21:46.356Z,8.93
2022-09-12T20:24:17.548Z,9.68
2022-09-12T20:26:45.233Z,14.25
2022-09-12T20:29:25.304Z,9.30
2022-09-12T20:32:03.414Z,9.98
2022-09-12T20:37:41.422Z,8.98
2022-09-12T20:40:10.998Z,9.20
2022-09-12T20:42:51.944Z,8.80
2022-09-12T20:45:21.649Z,9.07
2022-09-12T20:47:51.506Z,11.13
2022-09-12T20:50:26.871Z,11.45
2022-09-12T20:52:58.264Z,8.70
2022-09-12T20:55:26.630Z,10.35
2022-09-12T20:57:53.927Z,7.32
2022-09-12T21:00:22.457Z,7.97
2022-09-12T21:02:52.678Z,8.45
2022-09-12T21:05:24.529Z,7.72
2022-09-12T21:08:11.491Z,6.85
2022-09-12T21:10:45.877Z,7.18
2022-09-12T21:13:15.848Z,6.90
2022-09-12T21:15:44.287Z,11.38
2022-09-12T21:18:14.881Z,9.90
2022-09-12T21:20:44.441Z,7.38
2022-09-12T21:23:12.282Z,7.57
2022-09-12T21:25:41.586Z,7.45
2022-09-12T21:28:09.209Z,7.22
2022-09-12T21:30:36.551Z,7.40
2022-09-12T21:33:09.217Z,6.78
2022-09-12T21:35:45.234Z,10.55
2022-09-12T21:38:13.272Z,7.15
2022-09-12T21:40:44.323Z,7.10
2022-09-12T21:43:15.300Z,9.38
2022-09-12T21:45:44.839Z,6.43
2022-09-12T21:48:23.466Z,8.02
2022-09-12T21:50:57.436Z,8.60
2022-09-12T21:53:29.161Z,7.63
2022-09-12T21:56:02.986Z,7.22
2022-09-12T21:58:30.690Z,6.72
2022-09-12T22:01:02.259Z,6.68
2022-09-12T22:03:30.389Z,7.22
2022-09-12T22:06:00.611Z,6.68
2022-09-12T22:08:32.910Z,6.45
2022-09-12T22:11:03.211Z,7.05
2022-09-12T22:13:32.638Z,7.65
2022-09-12T22:16:03.497Z,8.93
2022-09-12T22:18:36.824Z,7.65
2022-09-12T22:21:13.239Z,7.78
2022-09-12T22:24:00.741Z,8.40
2022-09-12T22:26:36.964Z,7.38
2022-09-12T22:29:05.970Z,7.10
2022-09-12T22:31:34.078Z,9.13
2022-09-12T22:34:04.020Z,8.25
2022-09-12T22:36:38.162Z,11.98
2022-09-12T22:39:07.741Z,13.93
2022-09-12T22:41:36.553Z,8.40
2022-09-12T22:44:04.944Z,9.25
2022-09-12T22:46:37.196Z,6.72
2022-09-12T22:49:07.825Z,7.32
2022-09-12T22:51:37.515Z,6.47
2022-09-12T22:54:12.227Z,6.53
2022-09-12T22:56:40.437Z,7.22
2022-09-12T22:59:10.001Z,7.38
2022-09-12T23:01:38.658Z,12.18
2022-09-12T23:04:07.790Z,7.35
2022-09-12T23:06:50.193Z,7.55
2022-09-12T23:09:35.805Z,8.77
2022-09-12T23:16:07.236Z,7.93
2022-09-12T23:18:36.713Z,7.80
2022-09-12T23:21:17.658Z,7.15
2022-09-12T23:23:49.250Z,8.25
2022-09-12T23:26:29.026Z,8.18
2022-09-12T23:29:04.309Z,6.72
2022-09-12T23:31:38.373Z,5.63
2022-09-12T23:34:12.189Z,6.82
2022-09-12T23:36:50.706Z,5.78
2022-09-12T23:39:21.356Z,7.53
2022-09-12T23:42:00.468Z,6.80
2022-09-12T23:44:29.553Z,6.30
2022-09-12T23:47:01.763Z,7.10
2022-09-12T23:49:35.874Z,9.57
2022-09-12T23:52:09.864Z,7.18
2022-09-12T23:54:39.441Z,7.30
2022-09-12T23:57:13.809Z,7.65
2022-09-12T23:59:47.152Z,6.53
